sensor_id;sensor_type;location;lat;lon;timestamp;P1;durP1;ratioP1;P2;durP2;ratioP2
59424;SDS011;45231;44.826;20.312;2023-03-16T00:02:08;8.30;;;3.92;;
59424;SDS011;45231;44.826;20.312;2023-03-16T00:04:34;9.98;;;4.07;;
59424;SDS011;45231;44.826;20.312;2023-03-16T00:09:27;7.68;;;3.85;;
59424;SDS011;45231;44.826;20.312;2023-03-16T00:11:58;9.60;;;3.90;;
59424;SDS011;45231;44.826;20.312;2023-03-16T00:14:27;9.93;;;3.78;;
59424;SDS011;45231;44.826;20.312;2023-03-16T00:16:53;9.43;;;3.88;;
59424;SDS011;45231;44.826;20.312;2023-03-16T00:19:19;11.93;;;3.83;;
59424;SDS011;45231;44.826;20.312;2023-03-16T00:21:49;8.30;;;3.42;;
59424;SDS011;45231;44.826;20.312;2023-03-16T00:24:16;7.15;;;3.20;;
59424;SDS011;45231;44.826;20.312;2023-03-16T00:26:46;9.48;;;3.97;;
59424;SDS011;45231;44.826;20.312;2023-03-16T00:29:12;8.25;;;3.25;;
59424;SDS011;45231;44.826;20.312;2023-03-16T00:31:39;8.98;;;3.17;;
59424;SDS011;45231;44.826;20.312;2023-03-16T00:34:11;6.82;;;3.17;;
59424;SDS011;45231;44.826;20.312;2023-03-16T00:36:39;11.05;;;4.30;;
59424;SDS011;45231;44.826;20.312;2023-03-16T00:39:06;11.30;;;4.35;;
59424;SDS011;45231;44.826;20.312;2023-03-16T00:41:35;12.68;;;6.63;;
59424;SDS011;45231;44.826;20.312;2023-03-16T00:44:03;13.60;;;5.88;;
59424;SDS011;45231;44.826;20.312;2023-03-16T00:46:29;14.23;;;8.80;;
59424;SDS011;45231;44.826;20.312;2023-03-16T00:48:55;12.33;;;7.23;;
59424;SDS011;45231;44.826;20.312;2023-03-16T00:51:21;12.93;;;5.68;;
59424;SDS011;45231;44.826;20.312;2023-03-16T00:53:47;9.05;;;5.85;;
59424;SDS011;45231;44.826;20.312;2023-03-16T00:56:14;12.27;;;5.47;;
59424;SDS011;45231;44.826;20.312;2023-03-16T00:58:41;8.30;;;4.38;;
59424;SDS011;45231;44.826;20.312;2023-03-16T01:03:33;9.80;;;5.18;;
59424;SDS011;45231;44.826;20.312;2023-03-16T01:06:07;10.32;;;4.53;;
59424;SDS011;45231;44.826;20.312;2023-03-16T01:08:34;12.77;;;6.10;;
59424;SDS011;45231;44.826;20.312;2023-03-16T01:11:01;11.90;;;4.95;;
59424;SDS011;45231;44.826;20.312;2023-03-16T01:13:28;11.15;;;4.78;;
59424;SDS011;45231;44.826;20.312;2023-03-16T01:15:54;9.45;;;4.80;;
59424;SDS011;45231;44.826;20.312;2023-03-16T01:18:20;10.18;;;5.38;;
59424;SDS011;45231;44.826;20.312;2023-03-16T01:20:46;11.75;;;4.35;;
59424;SDS011;45231;44.826;20.312;2023-03-16T01:23:18;10.48;;;5.53;;
59424;SDS011;45231;44.826;20.312;2023-03-16T01:25:44;12.10;;;4.53;;
59424;SDS011;45231;44.826;20.312;2023-03-16T01:28:22;11.48;;;4.32;;
59424;SDS011;45231;44.826;20.312;2023-03-16T01:30:55;11.73;;;4.72;;
59424;SDS011;45231;44.826;20.312;2023-03-16T01:33:24;12.23;;;5.05;;
59424;SDS011;45231;44.826;20.312;2023-03-16T01:35:54;10.15;;;4.40;;
59424;SDS011;45231;44.826;20.312;2023-03-16T01:38:21;11.40;;;4.85;;
59424;SDS011;45231;44.826;20.312;2023-03-16T01:40:47;10.05;;;4.90;;
59424;SDS011;45231;44.826;20.312;2023-03-16T01:43:18;10.80;;;4.65;;
59424;SDS011;45231;44.826;20.312;2023-03-16T01:48:32;27.73;;;14.32;;
59424;SDS011;45231;44.826;20.312;2023-03-16T01:51:04;11.82;;;5.20;;
59424;SDS011;45231;44.826;20.312;2023-03-16T01:53:31;12.82;;;4.97;;
59424;SDS011;45231;44.826;20.312;2023-03-16T01:55:58;11.50;;;5.00;;
59424;SDS011;45231;44.826;20.312;2023-03-16T01:58:26;23.88;;;9.43;;
59424;SDS011;45231;44.826;20.312;2023-03-16T02:00:53;18.13;;;7.22;;
59424;SDS011;45231;44.826;20.312;2023-03-16T02:03:19;11.77;;;5.63;;
59424;SDS011;45231;44.826;20.312;2023-03-16T02:05:50;10.68;;;5.68;;
59424;SDS011;45231;44.826;20.312;2023-03-16T02:08:18;10.32;;;4.82;;
59424;SDS011;45231;44.826;20.312;2023-03-16T02:10:44;9.97;;;4.73;;
59424;SDS011;45231;44.826;20.312;2023-03-16T02:13:10;11.68;;;4.90;;
59424;SDS011;45231;44.826;20.312;2023-03-16T02:15:37;7.97;;;3.65;;
59424;SDS011;45231;44.826;20.312;2023-03-16T02:18:03;6.50;;;3.35;;
59424;SDS011;45231;44.826;20.312;2023-03-16T02:23:17;8.30;;;3.50;;
59424;SDS011;45231;44.826;20.312;2023-03-16T02:30:58;8.55;;;4.30;;
59424;SDS011;45231;44.826;20.312;2023-03-16T02:33:26;8.10;;;3.45;;
59424;SDS011;45231;44.826;20.312;2023-03-16T02:38:18;13.32;;;5.63;;
59424;SDS011;45231;44.826;20.312;2023-03-16T02:40:45;16.48;;;7.20;;
59424;SDS011;45231;44.826;20.312;2023-03-16T02:43:22;18.05;;;8.32;;
59424;SDS011;45231;44.826;20.312;2023-03-16T02:45:54;20.10;;;9.10;;
59424;SDS011;45231;44.826;20.312;2023-03-16T02:48:33;15.77;;;7.55;;
59424;SDS011;45231;44.826;20.312;2023-03-16T02:51:00;17.70;;;7.47;;
59424;SDS011;45231;44.826;20.312;2023-03-16T02:53:26;12.75;;;5.38;;
59424;SDS011;45231;44.826;20.312;2023-03-16T02:55:52;14.20;;;5.50;;
59424;SDS011;45231;44.826;20.312;2023-03-16T02:58:18;11.25;;;5.30;;
59424;SDS011;45231;44.826;20.312;2023-03-16T03:00:45;10.57;;;4.30;;
59424;SDS011;45231;44.826;20.312;2023-03-16T03:03:11;14.60;;;7.97;;
59424;SDS011;45231;44.826;20.312;2023-03-16T03:05:38;13.88;;;7.78;;
59424;SDS011;45231;44.826;20.312;2023-03-16T03:08:04;13.70;;;6.63;;
59424;SDS011;45231;44.826;20.312;2023-03-16T03:10:30;13.85;;;6.18;;
59424;SDS011;45231;44.826;20.312;2023-03-16T03:12:56;11.20;;;6.05;;
59424;SDS011;45231;44.826;20.312;2023-03-16T03:15:23;12.40;;;7.07;;
59424;SDS011;45231;44.826;20.312;2023-03-16T03:17:49;13.88;;;8.00;;
59424;SDS011;45231;44.826;20.312;2023-03-16T03:20:15;12.97;;;6.73;;
59424;SDS011;45231;44.826;20.312;2023-03-16T03:22:42;13.13;;;7.38;;
59424;SDS011;45231;44.826;20.312;2023-03-16T03:25:09;16.40;;;8.95;;
59424;SDS011;45231;44.826;20.312;2023-03-16T03:27:35;15.65;;;7.45;;
59424;SDS011;45231;44.826;20.312;2023-03-16T03:30:02;12.13;;;6.33;;
59424;SDS011;45231;44.826;20.312;2023-03-16T03:32:28;14.32;;;5.82;;
59424;SDS011;45231;44.826;20.312;2023-03-16T03:34:55;11.48;;;4.82;;
59424;SDS011;45231;44.826;20.312;2023-03-16T03:37:21;10.73;;;5.90;;
59424;SDS011;45231;44.826;20.312;2023-03-16T03:39:48;13.55;;;5.53;;
59424;SDS011;45231;44.826;20.312;2023-03-16T03:42:14;13.20;;;6.43;;
59424;SDS011;45231;44.826;20.312;2023-03-16T03:44:40;15.02;;;6.13;;
59424;SDS011;45231;44.826;20.312;2023-03-16T03:47:06;13.80;;;6.20;;
59424;SDS011;45231;44.826;20.312;2023-03-16T03:49:32;12.97;;;6.77;;
59424;SDS011;45231;44.826;20.312;2023-03-16T03:51:58;11.18;;;5.82;;
59424;SDS011;45231;44.826;20.312;2023-03-16T03:54:28;13.93;;;5.70;;
59424;SDS011;45231;44.826;20.312;2023-03-16T03:56:54;13.60;;;6.00;;
59424;SDS011;45231;44.826;20.312;2023-03-16T03:59:20;14.25;;;6.97;;
59424;SDS011;45231;44.826;20.312;2023-03-16T04:01:47;15.88;;;6.15;;
59424;SDS011;45231;44.826;20.312;2023-03-16T04:04:13;14.82;;;6.38;;
59424;SDS011;45231;44.826;20.312;2023-03-16T04:06:39;11.23;;;5.72;;
59424;SDS011;45231;44.826;20.312;2023-03-16T04:09:06;14.90;;;6.17;;
59424;SDS011;45231;44.826;20.312;2023-03-16T04:11:32;8.93;;;4.25;;
59424;SDS011;45231;44.826;20.312;2023-03-16T04:13:58;11.57;;;5.10;;
59424;SDS011;45231;44.826;20.312;2023-03-16T04:16:24;11.02;;;5.25;;
59424;SDS011;45231;44.826;20.312;2023-03-16T04:18:54;11.82;;;5.53;;
59424;SDS011;45231;44.826;20.312;2023-03-16T04:21:20;10.25;;;5.03;;
59424;SDS011;45231;44.826;20.312;2023-03-16T04:23:47;11.18;;;5.15;;
59424;SDS011;45231;44.826;20.312;2023-03-16T04:26:14;14.07;;;7.07;;
59424;SDS011;45231;44.826;20.312;2023-03-16T04:28:40;14.57;;;6.50;;
59424;SDS011;45231;44.826;20.312;2023-03-16T04:33:33;11.60;;;5.10;;
59424;SDS011;45231;44.826;20.312;2023-03-16T04:36:00;10.95;;;4.93;;
59424;SDS011;45231;44.826;20.312;2023-03-16T04:38:29;11.27;;;4.78;;
59424;SDS011;45231;44.826;20.312;2023-03-16T04:40:58;16.52;;;7.10;;
59424;SDS011;45231;44.826;20.312;2023-03-16T04:43:24;13.38;;;6.03;;
59424;SDS011;45231;44.826;20.312;2023-03-16T04:45:50;9.10;;;5.00;;
59424;SDS011;45231;44.826;20.312;2023-03-16T04:48:16;11.80;;;5.80;;
59424;SDS011;45231;44.826;20.312;2023-03-16T04:50:43;12.82;;;5.57;;
59424;SDS011;45231;44.826;20.312;2023-03-16T04:53:09;11.53;;;5.80;;
59424;SDS011;45231;44.826;20.312;2023-03-16T04:55:35;13.50;;;6.13;;
59424;SDS011;45231;44.826;20.312;2023-03-16T04:58:01;11.93;;;6.70;;
59424;SDS011;45231;44.826;20.312;2023-03-16T05:00:27;14.45;;;6.43;;
59424;SDS011;45231;44.826;20.312;2023-03-16T05:02:53;11.23;;;6.45;;
59424;SDS011;45231;44.826;20.312;2023-03-16T05:05:19;14.65;;;7.35;;
59424;SDS011;45231;44.826;20.312;2023-03-16T05:07:46;14.23;;;8.52;;
59424;SDS011;45231;44.826;20.312;2023-03-16T05:10:13;15.60;;;8.18;;
59424;SDS011;45231;44.826;20.312;2023-03-16T05:12:39;14.70;;;8.57;;
59424;SDS011;45231;44.826;20.312;2023-03-16T05:15:05;16.10;;;9.05;;
59424;SDS011;45231;44.826;20.312;2023-03-16T05:17:32;16.00;;;8.43;;
59424;SDS011;45231;44.826;20.312;2023-03-16T05:19:58;15.35;;;8.10;;
59424;SDS011;45231;44.826;20.312;2023-03-16T05:22:24;15.05;;;9.40;;
59424;SDS011;45231;44.826;20.312;2023-03-16T05:24:51;15.93;;;9.27;;
59424;SDS011;45231;44.826;20.312;2023-03-16T05:27:17;17.98;;;10.13;;
59424;SDS011;45231;44.826;20.312;2023-03-16T05:29:43;21.60;;;10.77;;
59424;SDS011;45231;44.826;20.312;2023-03-16T05:34:36;15.45;;;9.05;;
59424;SDS011;45231;44.826;20.312;2023-03-16T05:37:02;16.73;;;9.05;;
59424;SDS011;45231;44.826;20.312;2023-03-16T05:39:28;16.33;;;9.07;;
59424;SDS011;45231;44.826;20.312;2023-03-16T05:41:58;14.43;;;8.50;;
59424;SDS011;45231;44.826;20.312;2023-03-16T05:44:24;19.55;;;9.27;;
59424;SDS011;45231;44.826;20.312;2023-03-16T05:46:50;16.25;;;8.45;;
59424;SDS011;45231;44.826;20.312;2023-03-16T05:49:16;17.33;;;9.35;;
59424;SDS011;45231;44.826;20.312;2023-03-16T05:51:42;17.60;;;9.55;;
59424;SDS011;45231;44.826;20.312;2023-03-16T05:54:08;18.87;;;9.83;;
59424;SDS011;45231;44.826;20.312;2023-03-16T05:56:34;18.00;;;10.07;;
59424;SDS011;45231;44.826;20.312;2023-03-16T05:59:00;23.60;;;11.40;;
59424;SDS011;45231;44.826;20.312;2023-03-16T06:01:26;23.13;;;12.83;;
59424;SDS011;45231;44.826;20.312;2023-03-16T06:03:52;20.33;;;10.67;;
59424;SDS011;45231;44.826;20.312;2023-03-16T06:06:19;20.38;;;9.88;;
59424;SDS011;45231;44.826;20.312;2023-03-16T06:08:46;14.77;;;8.88;;
59424;SDS011;45231;44.826;20.312;2023-03-16T06:11:13;14.40;;;8.85;;
59424;SDS011;45231;44.826;20.312;2023-03-16T06:13:39;14.55;;;8.25;;
59424;SDS011;45231;44.826;20.312;2023-03-16T06:16:06;15.13;;;7.88;;
59424;SDS011;45231;44.826;20.312;2023-03-16T06:20:58;14.98;;;8.30;;
59424;SDS011;45231;44.826;20.312;2023-03-16T06:23:25;13.83;;;7.30;;
59424;SDS011;45231;44.826;20.312;2023-03-16T06:25:51;13.48;;;8.20;;
59424;SDS011;45231;44.826;20.312;2023-03-16T06:28:20;12.57;;;7.80;;
59424;SDS011;45231;44.826;20.312;2023-03-16T06:30:46;11.93;;;6.70;;
59424;SDS011;45231;44.826;20.312;2023-03-16T06:33:13;12.47;;;7.03;;
59424;SDS011;45231;44.826;20.312;2023-03-16T06:35:39;13.07;;;7.18;;
59424;SDS011;45231;44.826;20.312;2023-03-16T06:38:05;13.48;;;7.40;;
59424;SDS011;45231;44.826;20.312;2023-03-16T06:40:31;12.33;;;6.60;;
59424;SDS011;45231;44.826;20.312;2023-03-16T06:42:57;13.80;;;7.75;;
59424;SDS011;45231;44.826;20.312;2023-03-16T06:45:24;11.55;;;7.43;;
59424;SDS011;45231;44.826;20.312;2023-03-16T06:47:50;13.20;;;7.45;;
59424;SDS011;45231;44.826;20.312;2023-03-16T06:50:16;13.27;;;7.10;;
59424;SDS011;45231;44.826;20.312;2023-03-16T06:52:42;14.00;;;7.20;;
59424;SDS011;45231;44.826;20.312;2023-03-16T06:55:09;14.15;;;7.00;;
59424;SDS011;45231;44.826;20.312;2023-03-16T06:57:36;13.23;;;6.68;;
59424;SDS011;45231;44.826;20.312;2023-03-16T07:00:03;13.60;;;7.30;;
59424;SDS011;45231;44.826;20.312;2023-03-16T07:02:31;11.82;;;6.53;;
59424;SDS011;45231;44.826;20.312;2023-03-16T07:04:59;12.02;;;6.88;;
59424;SDS011;45231;44.826;20.312;2023-03-16T07:07:25;12.68;;;7.35;;
59424;SDS011;45231;44.826;20.312;2023-03-16T07:09:52;13.27;;;5.85;;
59424;SDS011;45231;44.826;20.312;2023-03-16T07:12:18;9.88;;;5.53;;
59424;SDS011;45231;44.826;20.312;2023-03-16T07:14:44;13.60;;;6.93;;
59424;SDS011;45231;44.826;20.312;2023-03-16T07:17:10;12.27;;;6.50;;
59424;SDS011;45231;44.826;20.312;2023-03-16T07:19:36;12.88;;;7.22;;
59424;SDS011;45231;44.826;20.312;2023-03-16T07:22:02;11.35;;;6.68;;
59424;SDS011;45231;44.826;20.312;2023-03-16T07:24:28;11.63;;;6.47;;
59424;SDS011;45231;44.826;20.312;2023-03-16T07:26:54;11.50;;;6.60;;
59424;SDS011;45231;44.826;20.312;2023-03-16T07:29:20;13.13;;;7.03;;
59424;SDS011;45231;44.826;20.312;2023-03-16T07:31:47;13.48;;;6.80;;
59424;SDS011;45231;44.826;20.312;2023-03-16T07:34:13;10.52;;;6.57;;
59424;SDS011;45231;44.826;20.312;2023-03-16T07:36:39;10.60;;;5.85;;
59424;SDS011;45231;44.826;20.312;2023-03-16T07:39:05;13.00;;;6.05;;
59424;SDS011;45231;44.826;20.312;2023-03-16T07:41:31;11.15;;;5.22;;
59424;SDS011;45231;44.826;20.312;2023-03-16T07:43:57;12.45;;;5.50;;
59424;SDS011;45231;44.826;20.312;2023-03-16T07:46:23;13.57;;;5.82;;
59424;SDS011;45231;44.826;20.312;2023-03-16T07:48:49;10.43;;;5.30;;
59424;SDS011;45231;44.826;20.312;2023-03-16T07:51:16;8.35;;;5.00;;
59424;SDS011;45231;44.826;20.312;2023-03-16T07:58:34;9.48;;;4.72;;
59424;SDS011;45231;44.826;20.312;2023-03-16T08:01:00;10.50;;;5.38;;
59424;SDS011;45231;44.826;20.312;2023-03-16T08:03:27;8.30;;;4.80;;
59424;SDS011;45231;44.826;20.312;2023-03-16T08:08:19;11.03;;;5.10;;
59424;SDS011;45231;44.826;20.312;2023-03-16T08:13:11;9.35;;;4.63;;
59424;SDS011;45231;44.826;20.312;2023-03-16T08:15:38;9.60;;;5.00;;
59424;SDS011;45231;44.826;20.312;2023-03-16T08:18:04;10.10;;;5.85;;
59424;SDS011;45231;44.826;20.312;2023-03-16T08:20:31;9.15;;;4.88;;
59424;SDS011;45231;44.826;20.312;2023-03-16T08:22:57;10.60;;;6.40;;
59424;SDS011;45231;44.826;20.312;2023-03-16T08:25:24;9.93;;;4.65;;
59424;SDS011;45231;44.826;20.312;2023-03-16T08:32:43;8.73;;;4.25;;
59424;SDS011;45231;44.826;20.312;2023-03-16T08:35:11;12.50;;;4.85;;
59424;SDS011;45231;44.826;20.312;2023-03-16T08:37:43;9.02;;;4.60;;
59424;SDS011;45231;44.826;20.312;2023-03-16T08:40:10;10.00;;;4.20;;
59424;SDS011;45231;44.826;20.312;2023-03-16T08:42:42;10.18;;;4.53;;
59424;SDS011;45231;44.826;20.312;2023-03-16T08:45:09;8.60;;;4.25;;
59424;SDS011;45231;44.826;20.312;2023-03-16T08:50:02;8.70;;;3.90;;
59424;SDS011;45231;44.826;20.312;2023-03-16T08:52:30;9.38;;;4.10;;
59424;SDS011;45231;44.826;20.312;2023-03-16T08:54:56;8.23;;;4.45;;
59424;SDS011;45231;44.826;20.312;2023-03-16T08:57:22;12.10;;;4.70;;
59424;SDS011;45231;44.826;20.312;2023-03-16T08:59:48;10.15;;;4.38;;
59424;SDS011;45231;44.826;20.312;2023-03-16T09:02:15;10.05;;;4.13;;
59424;SDS011;45231;44.826;20.312;2023-03-16T09:04:41;9.88;;;4.07;;
59424;SDS011;45231;44.826;20.312;2023-03-16T09:07:08;9.38;;;4.18;;
59424;SDS011;45231;44.826;20.312;2023-03-16T09:09:35;9.90;;;4.00;;
59424;SDS011;45231;44.826;20.312;2023-03-16T09:12:01;8.10;;;4.00;;
59424;SDS011;45231;44.826;20.312;2023-03-16T09:14:28;7.80;;;3.63;;
59424;SDS011;45231;44.826;20.312;2023-03-16T09:16:54;7.82;;;3.10;;
59424;SDS011;45231;44.826;20.312;2023-03-16T09:21:47;8.15;;;3.65;;
59424;SDS011;45231;44.826;20.312;2023-03-16T09:24:13;7.10;;;3.75;;
59424;SDS011;45231;44.826;20.312;2023-03-16T09:26:39;8.00;;;3.90;;
59424;SDS011;45231;44.826;20.312;2023-03-16T09:29:06;8.73;;;4.25;;
59424;SDS011;45231;44.826;20.312;2023-03-16T09:31:32;10.65;;;4.32;;
59424;SDS011;45231;44.826;20.312;2023-03-16T09:33:58;8.25;;;3.83;;
59424;SDS011;45231;44.826;20.312;2023-03-16T09:36:24;10.07;;;4.30;;
59424;SDS011;45231;44.826;20.312;2023-03-16T09:38:51;8.23;;;4.07;;
59424;SDS011;45231;44.826;20.312;2023-03-16T09:41:28;9.65;;;4.18;;
59424;SDS011;45231;44.826;20.312;2023-03-16T09:46:33;10.32;;;4.18;;
59424;SDS011;45231;44.826;20.312;2023-03-16T09:53:58;8.90;;;4.22;;
59424;SDS011;45231;44.826;20.312;2023-03-16T09:56:32;9.10;;;4.30;;
59424;SDS011;45231;44.826;20.312;2023-03-16T09:59:00;11.07;;;4.53;;
59424;SDS011;45231;44.826;20.312;2023-03-16T10:03:57;9.10;;;4.07;;
59424;SDS011;45231;44.826;20.312;2023-03-16T10:06:26;9.93;;;4.03;;
59424;SDS011;45231;44.826;20.312;2023-03-16T10:08:55;12.18;;;4.20;;
59424;SDS011;45231;44.826;20.312;2023-03-16T10:21:55;9.20;;;3.80;;
59424;SDS011;45231;44.826;20.312;2023-03-16T10:24:43;7.93;;;3.78;;
59424;SDS011;45231;44.826;20.312;2023-03-16T10:27:18;8.27;;;3.92;;
59424;SDS011;45231;44.826;20.312;2023-03-16T10:29:45;10.95;;;4.65;;
59424;SDS011;45231;44.826;20.312;2023-03-16T10:32:15;9.02;;;3.72;;
59424;SDS011;45231;44.826;20.312;2023-03-16T10:34:44;13.23;;;4.35;;
59424;SDS011;45231;44.826;20.312;2023-03-16T10:37:12;9.30;;;4.47;;
59424;SDS011;45231;44.826;20.312;2023-03-16T10:42:12;11.10;;;4.38;;
59424;SDS011;45231;44.826;20.312;2023-03-16T10:44:40;9.27;;;4.18;;
59424;SDS011;45231;44.826;20.312;2023-03-16T10:47:06;14.65;;;5.13;;
59424;SDS011;45231;44.826;20.312;2023-03-16T10:49:39;7.38;;;3.60;;
59424;SDS011;45231;44.826;20.312;2023-03-16T10:54:54;9.98;;;4.10;;
59424;SDS011;45231;44.826;20.312;2023-03-16T10:57:31;9.70;;;3.55;;
59424;SDS011;45231;44.826;20.312;2023-03-16T11:02:40;7.70;;;3.30;;
59424;SDS011;45231;44.826;20.312;2023-03-16T11:07:49;7.15;;;2.92;;
59424;SDS011;45231;44.826;20.312;2023-03-16T11:10:34;6.88;;;3.03;;
59424;SDS011;45231;44.826;20.312;2023-03-16T11:13:02;7.22;;;3.15;;
59424;SDS011;45231;44.826;20.312;2023-03-16T11:15:34;7.85;;;3.17;;
59424;SDS011;45231;44.826;20.312;2023-03-16T11:18:02;8.85;;;3.70;;
59424;SDS011;45231;44.826;20.312;2023-03-16T11:22:54;10.25;;;3.75;;
59424;SDS011;45231;44.826;20.312;2023-03-16T11:25:31;7.65;;;3.25;;
59424;SDS011;45231;44.826;20.312;2023-03-16T11:28:18;8.60;;;2.60;;
59424;SDS011;45231;44.826;20.312;2023-03-16T11:31:05;6.97;;;3.08;;
59424;SDS011;45231;44.826;20.312;2023-03-16T11:33:34;7.50;;;3.00;;
59424;SDS011;45231;44.826;20.312;2023-03-16T11:36:06;13.03;;;5.27;;
59424;SDS011;45231;44.826;20.312;2023-03-16T11:38:37;7.65;;;3.28;;
59424;SDS011;45231;44.826;20.312;2023-03-16T11:41:09;10.30;;;4.40;;
59424;SDS011;45231;44.826;20.312;2023-03-16T11:46:23;9.23;;;3.83;;
59424;SDS011;45231;44.826;20.312;2023-03-16T11:56:41;8.38;;;3.00;;
59424;SDS011;45231;44.826;20.312;2023-03-16T11:59:26;7.63;;;3.80;;
59424;SDS011;45231;44.826;20.312;2023-03-16T12:02:15;6.32;;;2.83;;
59424;SDS011;45231;44.826;20.312;2023-03-16T12:07:20;11.40;;;3.97;;
59424;SDS011;45231;44.826;20.312;2023-03-16T12:12:35;7.63;;;3.55;;
59424;SDS011;45231;44.826;20.312;2023-03-16T12:17:55;7.63;;;4.00;;
59424;SDS011;45231;44.826;20.312;2023-03-16T12:20:25;10.73;;;4.13;;
59424;SDS011;45231;44.826;20.312;2023-03-16T12:23:07;10.93;;;4.93;;
59424;SDS011;45231;44.826;20.312;2023-03-16T12:25:35;9.40;;;4.22;;
59424;SDS011;45231;44.826;20.312;2023-03-16T12:28:02;12.38;;;4.10;;
59424;SDS011;45231;44.826;20.312;2023-03-16T12:33:29;9.80;;;4.47;;
59424;SDS011;45231;44.826;20.312;2023-03-16T12:41:10;9.73;;;5.20;;
59424;SDS011;45231;44.826;20.312;2023-03-16T12:48:53;9.33;;;4.63;;
59424;SDS011;45231;44.826;20.312;2023-03-16T12:51:30;8.00;;;4.53;;
59424;SDS011;45231;44.826;20.312;2023-03-16T12:53:57;10.32;;;5.05;;
59424;SDS011;45231;44.826;20.312;2023-03-16T12:56:29;12.05;;;5.10;;
59424;SDS011;45231;44.826;20.312;2023-03-16T12:58:57;6.95;;;3.95;;
59424;SDS011;45231;44.826;20.312;2023-03-16T13:01:27;13.20;;;4.93;;
59424;SDS011;45231;44.826;20.312;2023-03-16T13:03:58;10.88;;;4.43;;
59424;SDS011;45231;44.826;20.312;2023-03-16T13:06:25;9.15;;;3.60;;
59424;SDS011;45231;44.826;20.312;2023-03-16T13:08:56;8.60;;;4.20;;
59424;SDS011;45231;44.826;20.312;2023-03-16T13:11:24;8.57;;;4.10;;
59424;SDS011;45231;44.826;20.312;2023-03-16T13:13:52;8.50;;;3.90;;
59424;SDS011;45231;44.826;20.312;2023-03-16T13:16:31;9.80;;;4.20;;
59424;SDS011;45231;44.826;20.312;2023-03-16T13:19:00;7.68;;;3.60;;
59424;SDS011;45231;44.826;20.312;2023-03-16T13:21:41;8.07;;;3.63;;
59424;SDS011;45231;44.826;20.312;2023-03-16T13:24:21;8.87;;;4.10;;
59424;SDS011;45231;44.826;20.312;2023-03-16T13:26:57;8.68;;;4.07;;
59424;SDS011;45231;44.826;20.312;2023-03-16T13:29:30;9.63;;;4.40;;
59424;SDS011;45231;44.826;20.312;2023-03-16T13:31:57;8.10;;;4.10;;
59424;SDS011;45231;44.826;20.312;2023-03-16T13:36:52;9.30;;;4.45;;
59424;SDS011;45231;44.826;20.312;2023-03-16T13:39:23;11.27;;;3.70;;
59424;SDS011;45231;44.826;20.312;2023-03-16T13:42:03;8.02;;;3.90;;
59424;SDS011;45231;44.826;20.312;2023-03-16T13:44:40;8.60;;;3.83;;
59424;SDS011;45231;44.826;20.312;2023-03-16T13:47:07;9.48;;;4.30;;
59424;SDS011;45231;44.826;20.312;2023-03-16T13:49:41;9.63;;;4.65;;
59424;SDS011;45231;44.826;20.312;2023-03-16T13:52:12;9.63;;;4.43;;
59424;SDS011;45231;44.826;20.312;2023-03-16T13:54:41;10.45;;;4.13;;
59424;SDS011;45231;44.826;20.312;2023-03-16T13:57:08;8.17;;;3.37;;
59424;SDS011;45231;44.826;20.312;2023-03-16T13:59:35;9.90;;;3.65;;
59424;SDS011;45231;44.826;20.312;2023-03-16T14:02:02;8.80;;;3.42;;
59424;SDS011;45231;44.826;20.312;2023-03-16T14:04:29;20.10;;;6.88;;
59424;SDS011;45231;44.826;20.312;2023-03-16T14:06:56;10.15;;;3.88;;
59424;SDS011;45231;44.826;20.312;2023-03-16T14:09:23;7.85;;;3.25;;
59424;SDS011;45231;44.826;20.312;2023-03-16T14:11:51;10.25;;;4.20;;
59424;SDS011;45231;44.826;20.312;2023-03-16T14:14:28;7.80;;;3.58;;
59424;SDS011;45231;44.826;20.312;2023-03-16T14:17:02;8.30;;;4.07;;
59424;SDS011;45231;44.826;20.312;2023-03-16T14:19:38;8.32;;;3.85;;
59424;SDS011;45231;44.826;20.312;2023-03-16T14:22:15;8.25;;;3.92;;
59424;SDS011;45231;44.826;20.312;2023-03-16T14:24:41;10.30;;;4.55;;
59424;SDS011;45231;44.826;20.312;2023-03-16T14:29:44;10.82;;;4.05;;
59424;SDS011;45231;44.826;20.312;2023-03-16T14:34:37;9.02;;;4.00;;
59424;SDS011;45231;44.826;20.312;2023-03-16T14:37:07;12.45;;;6.32;;
59424;SDS011;45231;44.826;20.312;2023-03-16T14:39:34;9.60;;;4.03;;
59424;SDS011;45231;44.826;20.312;2023-03-16T14:42:01;8.80;;;3.83;;
59424;SDS011;45231;44.826;20.312;2023-03-16T14:44:29;8.55;;;3.50;;
59424;SDS011;45231;44.826;20.312;2023-03-16T14:46:56;7.47;;;3.60;;
59424;SDS011;45231;44.826;20.312;2023-03-16T14:49:31;8.30;;;3.53;;
59424;SDS011;45231;44.826;20.312;2023-03-16T14:51:59;8.95;;;3.58;;
59424;SDS011;45231;44.826;20.312;2023-03-16T14:54:26;10.23;;;3.90;;
59424;SDS011;45231;44.826;20.312;2023-03-16T14:57:00;8.65;;;4.28;;
59424;SDS011;45231;44.826;20.312;2023-03-16T14:59:27;10.52;;;4.20;;
59424;SDS011;45231;44.826;20.312;2023-03-16T15:01:53;9.48;;;3.67;;
59424;SDS011;45231;44.826;20.312;2023-03-16T15:04:23;11.63;;;3.80;;
59424;SDS011;45231;44.826;20.312;2023-03-16T15:06:50;8.23;;;4.13;;
59424;SDS011;45231;44.826;20.312;2023-03-16T15:09:38;7.83;;;3.73;;
59424;SDS011;45231;44.826;20.312;2023-03-16T15:12:03;9.15;;;3.95;;
59424;SDS011;45231;44.826;20.312;2023-03-16T15:14:29;9.18;;;3.67;;
59424;SDS011;45231;44.826;20.312;2023-03-16T15:17:15;7.97;;;4.18;;
59424;SDS011;45231;44.826;20.312;2023-03-16T15:19:43;8.77;;;3.40;;
59424;SDS011;45231;44.826;20.312;2023-03-16T15:22:09;10.40;;;4.20;;
59424;SDS011;45231;44.826;20.312;2023-03-16T15:24:37;12.73;;;4.43;;
59424;SDS011;45231;44.826;20.312;2023-03-16T15:27:04;10.10;;;4.30;;
59424;SDS011;45231;44.826;20.312;2023-03-16T15:29:34;9.40;;;4.30;;
59424;SDS011;45231;44.826;20.312;2023-03-16T15:32:00;8.57;;;4.40;;
59424;SDS011;45231;44.826;20.312;2023-03-16T15:34:26;9.53;;;4.03;;
59424;SDS011;45231;44.826;20.312;2023-03-16T15:36:53;9.57;;;4.03;;
59424;SDS011;45231;44.826;20.312;2023-03-16T15:39:20;7.00;;;4.40;;
59424;SDS011;45231;44.826;20.312;2023-03-16T15:41:47;8.73;;;4.22;;
59424;SDS011;45231;44.826;20.312;2023-03-16T15:44:13;13.30;;;4.60;;
59424;SDS011;45231;44.826;20.312;2023-03-16T15:46:39;8.18;;;4.22;;
59424;SDS011;45231;44.826;20.312;2023-03-16T15:49:06;10.53;;;4.20;;
59424;SDS011;45231;44.826;20.312;2023-03-16T15:51:32;9.57;;;4.03;;
59424;SDS011;45231;44.826;20.312;2023-03-16T15:53:58;10.43;;;4.20;;
59424;SDS011;45231;44.826;20.312;2023-03-16T15:56:27;9.05;;;3.95;;
59424;SDS011;45231;44.826;20.312;2023-03-16T15:58:58;8.48;;;3.90;;
59424;SDS011;45231;44.826;20.312;2023-03-16T16:01:27;7.82;;;4.07;;
59424;SDS011;45231;44.826;20.312;2023-03-16T16:03:59;8.43;;;4.15;;
59424;SDS011;45231;44.826;20.312;2023-03-16T16:06:25;9.73;;;4.40;;
59424;SDS011;45231;44.826;20.312;2023-03-16T16:11:22;9.68;;;4.75;;
59424;SDS011;45231;44.826;20.312;2023-03-16T16:13:49;10.00;;;4.78;;
59424;SDS011;45231;44.826;20.312;2023-03-16T16:16:16;8.75;;;4.90;;
59424;SDS011;45231;44.826;20.312;2023-03-16T16:21:15;9.57;;;5.43;;
59424;SDS011;45231;44.826;20.312;2023-03-16T16:23:43;10.25;;;5.50;;
59424;SDS011;45231;44.826;20.312;2023-03-16T16:28:41;11.07;;;6.15;;
59424;SDS011;45231;44.826;20.312;2023-03-16T16:31:10;13.77;;;6.10;;
59424;SDS011;45231;44.826;20.312;2023-03-16T16:33:37;9.40;;;5.57;;
59424;SDS011;45231;44.826;20.312;2023-03-16T16:36:05;11.52;;;5.57;;
59424;SDS011;45231;44.826;20.312;2023-03-16T16:38:31;12.68;;;5.20;;